createdAt,value
2019-01-29T00:00:39.201Z,107.64
2019-01-29T00:03:41.882Z,107.78
2019-01-29T00:06:44.710Z,107.86
2019-01-29T00:09:47.395Z,107.99
2019-01-29T00:12:50.122Z,108.20
2019-01-29T00:15:52.730Z,108.09
2019-01-29T00:18:55.322Z,108.22
2019-01-29T00:21:57.947Z,108.30
2019-01-29T00:25:00.552Z,108.23
2019-01-29T00:28:03.375Z,108.62
2019-01-29T00:31:05.946Z,108.54
2019-01-29T00:34:08.585Z,108.51
2019-01-29T00:37:12.271Z,108.72
2019-01-29T00:40:15.311Z,108.65
2019-01-29T00:43:18.982Z,108.91
2019-01-29T00:46:21.572Z,108.95
2019-01-29T00:49:24.261Z,109.13
2019-01-29T00:52:26.891Z,109.18
2019-01-29T00:55:29.585Z,109.28
2019-01-29T00:58:32.273Z,109.41
2019-01-29T01:01:35.024Z,109.44
2019-01-29T01:04:37.782Z,109.64
2019-01-29T01:07:40.438Z,109.73
2019-01-29T01:10:43.021Z,109.85
2019-01-29T01:13:45.737Z,109.81
2019-01-29T01:16:48.317Z,109.70
2019-01-29T01:19:51.671Z,109.86
2019-01-29T01:22:56.396Z,109.93
2019-01-29T01:25:58.738Z,109.99
2019-01-29T01:29:01.308Z,110.34
2019-01-29T01:32:04.040Z,110.32
2019-01-29T01:35:06.790Z,109.74
2019-01-29T01:38:09.465Z,109.37
2019-01-29T01:41:12.240Z,108.93
2019-01-29T01:44:14.852Z,108.71
2019-01-29T01:47:17.466Z,108.68
2019-01-29T01:50:20.107Z,108.22
2019-01-29T01:53:22.695Z,108.25
2019-01-29T01:56:25.410Z,108.24
2019-01-29T01:59:28.056Z,108.19
2019-01-29T02:02:30.716Z,107.83
2019-01-29T02:05:33.270Z,107.70
2019-01-29T02:08:35.815Z,107.98
2019-01-29T02:11:38.430Z,108.05
2019-01-29T02:14:41.120Z,108.22
2019-01-29T02:17:43.860Z,108.38
2019-01-29T02:20:46.502Z,108.82
2019-01-29T02:23:49.073Z,109.29
2019-01-29T02:26:51.916Z,109.19
2019-01-29T02:29:54.623Z,109.25
2019-01-29T02:32:57.212Z,109.66
2019-01-29T02:35:59.969Z,110.09
2019-01-29T02:39:04.797Z,110.82
2019-01-29T02:42:08.747Z,110.99
2019-01-29T02:45:12.164Z,110.92
2019-01-29T02:48:14.846Z,110.69
2019-01-29T02:51:18.013Z,111.09
2019-01-29T02:54:20.873Z,110.99
2019-01-29T02:57:23.520Z,111.40
2019-01-29T03:00:26.775Z,111.84
2019-01-29T03:03:29.453Z,111.86
2019-01-29T03:06:32.129Z,111.88
2019-01-29T03:09:34.801Z,112.18
2019-01-29T03:12:37.510Z,111.93
2019-01-29T03:15:40.224Z,111.99
2019-01-29T03:18:42.908Z,111.81
2019-01-29T03:21:45.568Z,111.98
2019-01-29T03:24:48.245Z,111.95
2019-01-29T03:27:50.831Z,111.77
2019-01-29T03:30:53.435Z,112.14
2019-01-29T03:33:56.094Z,111.95
2019-01-29T03:36:58.688Z,111.91
2019-01-29T03:40:01.528Z,111.79
2019-01-29T03:43:04.432Z,111.38
2019-01-29T03:46:07.260Z,111.17
2019-01-29T03:49:09.913Z,111.12
2019-01-29T03:52:12.519Z,110.95
2019-01-29T03:55:15.600Z,110.89
2019-01-29T03:58:18.197Z,110.62
2019-01-29T04:01:20.840Z,110.53
2019-01-29T04:04:23.551Z,110.56
2019-01-29T04:07:26.123Z,110.55
2019-01-29T04:10:28.709Z,110.32
2019-01-29T04:13:31.394Z,110.15
2019-01-29T04:16:34.141Z,110.38
2019-01-29T04:19:36.781Z,109.88
2019-01-29T04:22:39.549Z,109.73
2019-01-29T04:25:42.109Z,109.80
2019-01-29T04:28:44.726Z,109.70
2019-01-29T04:31:47.256Z,109.59
2019-01-29T04:34:50.004Z,109.83
2019-01-29T04:37:52.669Z,110.15
2019-01-29T04:40:55.317Z,110.19
2019-01-29T04:43:57.895Z,110.37
2019-01-29T04:47:00.527Z,110.92
2019-01-29T04:50:04.346Z,111.42
2019-01-29T04:53:06.996Z,111.68
2019-01-29T04:56:09.734Z,111.98
2019-01-29T04:59:12.409Z,112.05
2019-01-29T05:02:17.208Z,111.92
2019-01-29T05:05:20.557Z,111.76
2019-01-29T05:08:23.319Z,112.13
2019-01-29T05:11:25.982Z,112.50
2019-01-29T05:14:29.454Z,112.65
2019-01-29T05:17:32.121Z,112.53
2019-01-29T05:20:34.783Z,112.61
2019-01-29T05:23:37.434Z,112.76
2019-01-29T05:26:40.055Z,112.82
2019-01-29T05:29:42.698Z,112.95
2019-01-29T05:32:45.454Z,113.11
2019-01-29T05:35:48.180Z,113.30
2019-01-29T05:38:50.807Z,113.26
2019-01-29T05:41:53.639Z,113.29
2019-01-29T05:44:56.300Z,113.40
2019-01-29T05:47:58.858Z,113.43
2019-01-29T05:51:03.222Z,113.40
2019-01-29T05:54:05.875Z,113.39
2019-01-29T05:57:08.471Z,113.34
2019-01-29T06:00:24.018Z,113.27
2019-01-29T06:03:26.749Z,113.25
2019-01-29T06:06:30.769Z,113.03
2019-01-29T06:09:33.540Z,113.28
2019-01-29T06:12:36.193Z,113.45
2019-01-29T06:15:38.991Z,113.39
2019-01-29T06:18:41.863Z,113.40
2019-01-29T06:21:44.445Z,113.46
2019-01-29T06:24:47.071Z,113.53
2019-01-29T06:27:49.825Z,113.48
2019-01-29T06:30:52.505Z,113.77
2019-01-29T06:33:55.077Z,113.99
2019-01-29T06:36:57.645Z,114.13
2019-01-29T06:40:00.253Z,114.17
2019-01-29T06:43:02.965Z,114.27
2019-01-29T06:46:09.385Z,114.19
2019-01-29T06:49:12.079Z,114.18
2019-01-29T06:52:14.775Z,114.20
2019-01-29T06:55:18.824Z,114.13
2019-01-29T06:58:21.519Z,114.11
2019-01-29T07:01:25.110Z,114.01
2019-01-29T07:04:27.749Z,114.03
2019-01-29T07:07:30.338Z,113.97
2019-01-29T07:10:33.015Z,113.90
2019-01-29T07:13:35.513Z,113.98
2019-01-29T07:16:48.150Z,114.08
2019-01-29T07:19:53.533Z,114.05
2019-01-29T07:22:56.188Z,114.11
2019-01-29T07:25:58.769Z,114.16
2019-01-29T07:29:01.449Z,114.01
2019-01-29T07:32:04.207Z,113.79
2019-01-29T07:35:07.619Z,113.57
2019-01-29T07:38:11.189Z,113.49
2019-01-29T07:41:13.834Z,113.27
2019-01-29T07:44:16.459Z,113.10
2019-01-29T07:47:19.030Z,112.64
2019-01-29T07:50:22.623Z,112.48
2019-01-29T07:53:25.285Z,112.43
2019-01-29T07:56:29.185Z,112.37
2019-01-29T07:59:33.121Z,112.13
2019-01-29T08:02:36.083Z,111.73
2019-01-29T08:05:38.691Z,111.91
2019-01-29T08:08:41.357Z,111.83
2019-01-29T08:11:44.009Z,111.46
2019-01-29T08:14:46.634Z,111.40
2019-01-29T08:17:49.270Z,111.11
2019-01-29T08:20:51.975Z,110.81
2019-01-29T08:23:54.625Z,110.96
2019-01-29T08:26:57.213Z,110.71
2019-01-29T08:29:59.888Z,110.41
2019-01-29T08:33:02.509Z,110.21
2019-01-29T08:36:05.193Z,110.20
2019-01-29T08:39:08.316Z,109.65
2019-01-29T08:42:11.278Z,109.40
2019-01-29T08:45:14.354Z,109.12
2019-01-29T08:48:17.110Z,109.03
2019-01-29T08:51:19.679Z,108.82
2019-01-29T08:54:22.423Z,108.64
2019-01-29T08:57:25.075Z,108.51
2019-01-29T09:00:27.825Z,108.11
2019-01-29T09:03:30.439Z,107.82
2019-01-29T09:06:33.018Z,107.09
2019-01-29T09:09:35.732Z,106.36
2019-01-29T09:12:38.418Z,105.68
2019-01-29T09:15:41.026Z,105.80
2019-01-29T09:18:43.584Z,105.21
2019-01-29T09:21:46.199Z,105.29
2019-01-29T09:24:48.929Z,105.68
2019-01-29T09:27:51.548Z,106.07
2019-01-29T09:30:54.139Z,106.14
2019-01-29T09:33:56.960Z,104.97
2019-01-29T09:36:59.729Z,104.76
2019-01-29T09:40:02.930Z,104.26
2019-01-29T09:43:08.077Z,104.44
2019-01-29T09:46:10.710Z,104.20
2019-01-29T09:49:13.532Z,103.77
2019-01-29T09:52:16.263Z,103.52
2019-01-29T09:55:28.098Z,104.10
2019-01-29T09:58:24.699Z,104.58
2019-01-29T10:01:27.312Z,104.34
2019-01-29T10:04:29.865Z,104.76
2019-01-29T10:07:32.482Z,105.65
2019-01-29T10:10:35.064Z,106.11
2019-01-29T10:13:37.884Z,105.99
2019-01-29T10:16:40.438Z,106.00
2019-01-29T10:19:43.027Z,105.47
2019-01-29T10:22:45.592Z,104.89
2019-01-29T10:25:48.224Z,104.90
2019-01-29T10:28:50.866Z,105.10
2019-01-29T10:31:53.523Z,104.77
2019-01-29T10:34:56.097Z,104.78
2019-01-29T10:37:58.679Z,105.80
2019-01-29T10:41:01.322Z,105.99
2019-01-29T10:44:04.168Z,105.47
2019-01-29T10:47:08.082Z,105.73
2019-01-29T10:50:13.569Z,104.90
2019-01-29T10:53:16.320Z,104.60
2019-01-29T10:56:18.962Z,104.94
2019-01-29T10:59:21.619Z,105.16
2019-01-29T11:02:24.233Z,105.08
2019-01-29T11:05:27.050Z,104.71
2019-01-29T11:08:29.687Z,103.00
2019-01-29T11:11:32.307Z,102.60
2019-01-29T11:14:34.872Z,102.20
2019-01-29T11:17:37.563Z,102.30
2019-01-29T11:20:40.323Z,102.50
2019-01-29T11:23:43.006Z,103.37
2019-01-29T11:26:45.629Z,102.10
2019-01-29T11:29:49.337Z,102.43
2019-01-29T11:32:52.107Z,102.62
2019-01-29T11:35:54.891Z,102.59
2019-01-29T11:38:57.617Z,102.72
2019-01-29T11:42:00.212Z,101.77
2019-01-29T11:45:04.227Z,100.98
2019-01-29T11:48:07.722Z,101.69
2019-01-29T11:51:11.362Z,101.49
2019-01-29T11:54:14.024Z,101.90
2019-01-29T11:57:16.624Z,101.95
2019-01-29T12:00:27.239Z,100.72
2019-01-29T12:03:29.857Z,101.04
2019-01-29T12:06:32.457Z,100.26
2019-01-29T12:09:35.042Z,99.76
2019-01-29T12:12:37.686Z,98.85
2019-01-29T12:15:40.278Z,99.95
2019-01-29T12:18:42.810Z,97.88
2019-01-29T12:21:45.424Z,100.41
2019-01-29T12:24:48.119Z,99.56
2019-01-29T12:27:50.810Z,99.97
2019-01-29T12:30:53.403Z,99.52
2019-01-29T12:33:56.143Z,98.77
2019-01-29T12:36:58.874Z,98.38
2019-01-29T12:40:01.403Z,98.04
2019-01-29T12:43:04.469Z,98.57
2019-01-29T12:46:07.147Z,96.83
2019-01-29T12:49:09.740Z,96.63
2019-01-29T12:52:22.494Z,97.47
2019-01-29T12:55:25.196Z,96.78
2019-01-29T12:58:27.974Z,96.50
2019-01-29T13:01:30.691Z,93.90
2019-01-29T13:04:37.149Z,94.43
2019-01-29T13:07:44.003Z,92.56
2019-01-29T13:10:46.638Z,93.40
2019-01-29T13:13:49.363Z,92.83
2019-01-29T13:16:52.024Z,91.61
2019-01-29T13:19:54.720Z,91.53
2019-01-29T13:22:57.436Z,88.97
2019-01-29T13:26:00.122Z,90.26
2019-01-29T13:29:03.018Z,90.73
2019-01-29T13:32:05.670Z,89.68
2019-01-29T13:35:09.675Z,89.68
2019-01-29T13:38:12.671Z,89.28
2019-01-29T13:41:15.282Z,90.00
2019-01-29T13:44:17.982Z,91.20
2019-01-29T13:47:20.687Z,92.19
2019-01-29T13:50:27.338Z,92.67
2019-01-29T13:53:30.029Z,92.40
2019-01-29T13:56:38.756Z,90.98
2019-01-29T13:59:37.432Z,92.50
2019-01-29T14:02:40.160Z,92.92
2019-01-29T14:05:42.722Z,92.60
2019-01-29T14:08:46.307Z,93.25
2019-01-29T14:11:49.072Z,93.35
2019-01-29T14:14:51.698Z,91.87
2019-01-29T14:17:54.367Z,93.00
2019-01-29T14:20:58.092Z,93.78
2019-01-29T14:24:02.290Z,94.99
2019-01-29T14:27:06.728Z,96.32
2019-01-29T14:30:19.079Z,97.54
2019-01-29T14:33:21.764Z,97.66
2019-01-29T14:36:24.590Z,100.75
2019-01-29T14:39:51.528Z,101.00
2019-01-29T14:42:54.231Z,101.29
2019-01-29T14:45:58.499Z,101.45
2019-01-29T14:49:01.447Z,101.52
2019-01-29T14:52:04.353Z,100.66
2019-01-29T14:55:08.323Z,101.62
2019-01-29T14:58:10.913Z,102.07
2019-01-29T15:01:13.982Z,103.14
2019-01-29T15:04:16.649Z,103.68
2019-01-29T15:07:19.332Z,104.23
2019-01-29T15:10:22.084Z,104.58
2019-01-29T15:13:24.864Z,104.30
2019-01-29T15:16:51.557Z,103.82
2019-01-29T15:19:54.123Z,104.16
2019-01-29T15:22:56.767Z,104.55
2019-01-29T15:25:59.402Z,104.66
2019-01-29T15:29:01.977Z,105.29
2019-01-29T15:32:10.767Z,105.14
2019-01-29T15:35:13.386Z,105.09
2019-01-29T15:38:16.233Z,105.67
2019-01-29T15:41:19.058Z,106.46
2019-01-29T15:44:21.719Z,106.32
2019-01-29T15:47:24.450Z,106.58
2019-01-29T15:50:27.298Z,107.29
2019-01-29T15:53:29.962Z,107.38
2019-01-29T15:56:32.802Z,107.81
2019-01-29T15:59:42.792Z,107.57
2019-01-29T16:02:40.112Z,107.88
2019-01-29T16:05:42.812Z,107.96
2019-01-29T16:08:45.531Z,109.19
2019-01-29T16:11:48.293Z,109.35
2019-01-29T16:14:51.079Z,108.81
2019-01-29T16:17:54.900Z,108.83
2019-01-29T16:20:57.798Z,108.47
2019-01-29T16:24:00.473Z,108.54
2019-01-29T16:27:06.910Z,108.74
2019-01-29T16:30:11.250Z,108.77
2019-01-29T16:33:14.427Z,109.01
2019-01-29T16:36:17.226Z,108.93
2019-01-29T16:39:20.105Z,108.95
2019-01-29T16:42:28.132Z,109.47
2019-01-29T16:45:36.247Z,109.78
2019-01-29T16:48:38.989Z,109.98
2019-01-29T16:51:43.277Z,110.10
2019-01-29T16:54:45.915Z,110.05
2019-01-29T16:57:49.013Z,110.47
2019-01-29T17:00:51.705Z,111.11
2019-01-29T17:03:54.395Z,111.01
2019-01-29T17:06:57.082Z,111.60
2019-01-29T17:09:59.805Z,111.25
2019-01-29T17:13:02.506Z,110.70
2019-01-29T17:16:05.221Z,110.36
2019-01-29T17:19:11.097Z,110.39
2019-01-29T17:22:13.777Z,110.28
2019-01-29T17:25:16.651Z,110.19
2019-01-29T17:28:19.222Z,109.34
2019-01-29T17:31:21.911Z,109.13
2019-01-29T17:34:24.589Z,109.42
2019-01-29T17:37:27.265Z,109.31
2019-01-29T17:40:30.110Z,109.57
2019-01-29T17:43:47.331Z,109.02
2019-01-29T17:46:49.982Z,108.97
2019-01-29T17:49:52.788Z,108.93
2019-01-29T17:52:55.450Z,108.41
2019-01-29T17:55:58.219Z,108.09
2019-01-29T17:59:01.012Z,108.43
2019-01-29T18:02:04.121Z,108.40
2019-01-29T18:05:06.772Z,108.52
2019-01-29T18:08:09.347Z,108.02
2019-01-29T18:11:11.967Z,108.21
2019-01-29T18:14:16.396Z,108.30
2019-01-29T18:17:19.057Z,107.94
2019-01-29T18:20:23.592Z,107.48
2019-01-29T18:23:26.273Z,107.51
2019-01-29T18:26:28.995Z,107.01
2019-01-29T18:29:31.706Z,106.96
2019-01-29T18:32:34.496Z,106.83
2019-01-29T18:35:37.198Z,106.15
2019-01-29T18:38:41.366Z,107.06
2019-01-29T18:41:47.182Z,107.38
2019-01-29T18:44:49.928Z,107.40
2019-01-29T18:47:52.692Z,106.75
2019-01-29T18:50:55.452Z,107.21
2019-01-29T18:53:59.826Z,107.35
2019-01-29T18:57:02.635Z,107.54
2019-01-29T19:00:08.517Z,107.01
2019-01-29T19:03:11.222Z,106.93
2019-01-29T19:06:13.825Z,107.55
2019-01-29T19:09:17.546Z,107.18
2019-01-29T19:12:23.391Z,107.74
2019-01-29T19:15:26.173Z,107.46
2019-01-29T19:18:30.754Z,107.75
2019-01-29T19:21:34.610Z,107.37
2019-01-29T19:24:37.282Z,107.03
2019-01-29T19:27:39.996Z,106.74
2019-01-29T19:30:42.751Z,106.61
2019-01-29T19:33:45.525Z,106.72
2019-01-29T19:36:48.284Z,107.75
2019-01-29T19:39:51.026Z,107.77
2019-01-29T19:42:53.745Z,107.70
2019-01-29T19:45:56.591Z,107.95
2019-01-29T19:48:59.320Z,107.61
2019-01-29T19:52:02.095Z,107.57
2019-01-29T19:55:05.125Z,107.32
2019-01-29T19:58:09.580Z,106.93
2019-01-29T20:01:12.330Z,107.81
2019-01-29T20:04:15.124Z,108.31
2019-01-29T20:07:17.865Z,108.61
2019-01-29T20:10:20.955Z,108.69
2019-01-29T20:13:23.695Z,109.06
2019-01-29T20:16:26.372Z,108.92
2019-01-29T20:19:29.015Z,109.40
2019-01-29T20:22:31.834Z,109.36
2019-01-29T20:25:34.702Z,109.39
2019-01-29T20:28:42.425Z,109.11
2019-01-29T20:31:42.057Z,109.43
2019-01-29T20:34:47.156Z,109.13
2019-01-29T20:37:49.888Z,108.32
2019-01-29T20:40:52.631Z,108.28
2019-01-29T20:43:55.329Z,109.10
2019-01-29T20:46:58.069Z,108.66
2019-01-29T20:50:00.925Z,108.49
2019-01-29T20:53:03.749Z,108.64
2019-01-29T20:56:06.505Z,108.66
2019-01-29T20:59:09.138Z,108.54
2019-01-29T21:02:11.874Z,108.24
2019-01-29T21:05:14.940Z,108.54
2019-01-29T21:08:17.641Z,108.55
2019-01-29T21:11:20.225Z,108.44
2019-01-29T21:14:22.820Z,108.35
2019-01-29T21:17:25.449Z,107.83
2019-01-29T21:20:29.958Z,107.48
2019-01-29T21:23:33.492Z,107.86
2019-01-29T21:26:36.214Z,108.12
2019-01-29T21:29:38.825Z,108.12
2019-01-29T21:32:41.452Z,107.93
2019-01-29T21:35:44.207Z,107.83
2019-01-29T21:38:46.831Z,107.67
2019-01-29T21:41:49.512Z,107.12
2019-01-29T21:44:52.106Z,106.83
2019-01-29T21:47:56.153Z,106.74
2019-01-29T21:50:58.860Z,106.73
2019-01-29T21:54:01.676Z,107.32
2019-01-29T21:57:04.461Z,107.06
2019-01-29T22:00:13.836Z,106.42
2019-01-29T22:03:16.601Z,106.79
2019-01-29T22:06:19.369Z,106.95
2019-01-29T22:09:23.933Z,106.81
2019-01-29T22:12:26.620Z,106.55
2019-01-29T22:15:31.091Z,106.77
2019-01-29T22:18:33.815Z,107.06
2019-01-29T22:21:36.571Z,106.77
2019-01-29T22:24:39.225Z,107.57
2019-01-29T22:27:41.908Z,107.80
2019-01-29T22:30:44.675Z,107.49
2019-01-29T22:33:47.270Z,107.23
2019-01-29T22:36:49.906Z,107.35
2019-01-29T22:39:52.649Z,107.14
2019-01-29T22:42:56.404Z,107.02
2019-01-29T22:45:59.116Z,107.22
2019-01-29T22:49:01.706Z,107.32
2019-01-29T22:52:04.487Z,106.67
2019-01-29T22:55:07.629Z,106.35
2019-01-29T22:58:12.683Z,105.70
2019-01-29T23:01:23.908Z,105.37
2019-01-29T23:04:29.118Z,105.42
2019-01-29T23:07:37.198Z,105.00
2019-01-29T23:10:39.914Z,105.46
2019-01-29T23:13:42.633Z,105.14
2019-01-29T23:16:45.373Z,105.40
2019-01-29T23:19:48.055Z,104.81
2019-01-29T23:22:50.828Z,104.27
2019-01-29T23:25:55.190Z,104.47
2019-01-29T23:28:57.809Z,103.80
2019-01-29T23:32:00.399Z,103.58
2019-01-29T23:35:03.935Z,103.55
2019-01-29T23:38:06.763Z,103.86
2019-01-29T23:41:09.334Z,103.68
2019-01-29T23:44:12.139Z,103.85
2019-01-29T23:47:14.789Z,104.32
2019-01-29T23:50:17.465Z,104.06
2019-01-29T23:53:20.030Z,104.58
2019-01-29T23:56:22.738Z,104.72
2019-01-29T23:59:25.396Z,104.77
